sensor_id;sensor_type;location;lat;lon;timestamp;temperature;humidity
45115;DHT22;30877;43.706;10.780;2023-04-03T00:00:20;13.10;96.70
45115;DHT22;30877;43.706;10.780;2023-04-03T00:02:48;13.00;96.70
45115;DHT22;30877;43.706;10.780;2023-04-03T00:05:17;13.00;96.70
45115;DHT22;30877;43.706;10.780;2023-04-03T00:07:45;12.90;96.70
45115;DHT22;30877;43.706;10.780;2023-04-03T00:10:16;13.10;96.70
45115;DHT22;30877;43.706;10.780;2023-04-03T00:12:44;12.90;96.70
45115;DHT22;30877;43.706;10.780;2023-04-03T00:15:13;12.90;96.70
45115;DHT22;30877;43.706;10.780;2023-04-03T00:17:41;13.00;96.70
45115;DHT22;30877;43.706;10.780;2023-04-03T00:20:10;12.70;96.70
45115;DHT22;30877;43.706;10.780;2023-04-03T00:22:38;12.70;96.70
45115;DHT22;30877;43.706;10.780;2023-04-03T00:25:08;12.80;96.70
45115;DHT22;30877;43.706;10.780;2023-04-03T00:27:40;12.80;96.70
45115;DHT22;30877;43.706;10.780;2023-04-03T00:30:13;12.80;96.70
45115;DHT22;30877;43.706;10.780;2023-04-03T00:32:41;12.90;96.70
45115;DHT22;30877;43.706;10.780;2023-04-03T00:35:10;12.90;96.70
45115;DHT22;30877;43.706;10.780;2023-04-03T00:37:38;12.90;96.70
45115;DHT22;30877;43.706;10.780;2023-04-03T00:40:09;12.70;96.70
45115;DHT22;30877;43.706;10.780;2023-04-03T00:42:41;12.80;96.70
45115;DHT22;30877;43.706;10.780;2023-04-03T00:45:30;12.60;96.70
45115;DHT22;30877;43.706;10.780;2023-04-03T00:48:01;12.60;96.70
45115;DHT22;30877;43.706;10.780;2023-04-03T00:50:34;12.60;96.70
45115;DHT22;30877;43.706;10.780;2023-04-03T00:53:05;12.60;96.70
45115;DHT22;30877;43.706;10.780;2023-04-03T00:55:36;12.70;96.70
45115;DHT22;30877;43.706;10.780;2023-04-03T00:58:08;12.70;96.70
45115;DHT22;30877;43.706;10.780;2023-04-03T01:00:40;12.70;96.70
45115;DHT22;30877;43.706;10.780;2023-04-03T01:03:10;12.60;96.70
45115;DHT22;30877;43.706;10.780;2023-04-03T01:05:40;12.50;96.70
45115;DHT22;30877;43.706;10.780;2023-04-03T01:08:08;12.50;96.70
45115;DHT22;30877;43.706;10.780;2023-04-03T01:10:37;12.50;96.70
45115;DHT22;30877;43.706;10.780;2023-04-03T01:13:21;12.40;96.70
45115;DHT22;30877;43.706;10.780;2023-04-03T01:15:50;12.40;96.70
45115;DHT22;30877;43.706;10.780;2023-04-03T01:18:19;12.40;96.70
45115;DHT22;30877;43.706;10.780;2023-04-03T01:21:15;12.40;96.70
45115;DHT22;30877;43.706;10.780;2023-04-03T01:24:09;12.50;96.70
45115;DHT22;30877;43.706;10.780;2023-04-03T01:26:39;12.40;96.70
45115;DHT22;30877;43.706;10.780;2023-04-03T01:29:09;12.40;96.70
45115;DHT22;30877;43.706;10.780;2023-04-03T01:31:49;12.40;96.70
45115;DHT22;30877;43.706;10.780;2023-04-03T01:34:33;12.30;96.70
45115;DHT22;30877;43.706;10.780;2023-04-03T01:37:02;12.20;96.70
45115;DHT22;30877;43.706;10.780;2023-04-03T01:39:31;12.30;96.70
45115;DHT22;30877;43.706;10.780;2023-04-03T01:42:00;12.10;96.70
45115;DHT22;30877;43.706;10.780;2023-04-03T01:44:33;12.20;96.70
45115;DHT22;30877;43.706;10.780;2023-04-03T01:47:05;12.20;96.70
45115;DHT22;30877;43.706;10.780;2023-04-03T01:49:36;12.10;96.70
45115;DHT22;30877;43.706;10.780;2023-04-03T01:52:05;12.10;96.70
45115;DHT22;30877;43.706;10.780;2023-04-03T01:54:33;12.10;96.70
45115;DHT22;30877;43.706;10.780;2023-04-03T01:57:02;12.10;96.70
45115;DHT22;30877;43.706;10.780;2023-04-03T01:59:31;12.10;96.70
45115;DHT22;30877;43.706;10.780;2023-04-03T02:01:59;12.00;96.70
45115;DHT22;30877;43.706;10.780;2023-04-03T02:04:29;11.90;96.70
45115;DHT22;30877;43.706;10.780;2023-04-03T02:06:57;12.00;96.70
45115;DHT22;30877;43.706;10.780;2023-04-03T02:09:26;11.90;96.70
45115;DHT22;30877;43.706;10.780;2023-04-03T02:11:54;11.80;96.70
45115;DHT22;30877;43.706;10.780;2023-04-03T02:14:23;11.80;96.70
45115;DHT22;30877;43.706;10.780;2023-04-03T02:16:52;11.80;96.70
45115;DHT22;30877;43.706;10.780;2023-04-03T02:19:22;11.70;96.70
45115;DHT22;30877;43.706;10.780;2023-04-03T02:21:52;11.90;96.70
45115;DHT22;30877;43.706;10.780;2023-04-03T02:24:20;12.00;96.70
45115;DHT22;30877;43.706;10.780;2023-04-03T02:26:48;12.00;96.70
45115;DHT22;30877;43.706;10.780;2023-04-03T02:29:17;12.10;96.70
45115;DHT22;30877;43.706;10.780;2023-04-03T02:31:45;12.10;96.70
45115;DHT22;30877;43.706;10.780;2023-04-03T02:34:14;12.00;96.70
45115;DHT22;30877;43.706;10.780;2023-04-03T02:36:43;12.00;96.70
45115;DHT22;30877;43.706;10.780;2023-04-03T02:39:15;12.00;96.70
45115;DHT22;30877;43.706;10.780;2023-04-03T02:41:44;11.80;96.70
45115;DHT22;30877;43.706;10.780;2023-04-03T02:44:19;11.80;96.70
45115;DHT22;30877;43.706;10.780;2023-04-03T02:46:47;11.90;96.70
45115;DHT22;30877;43.706;10.780;2023-04-03T02:49:15;11.80;96.70
45115;DHT22;30877;43.706;10.780;2023-04-03T02:51:43;11.70;96.70
45115;DHT22;30877;43.706;10.780;2023-04-03T02:54:11;11.60;96.70
45115;DHT22;30877;43.706;10.780;2023-04-03T02:56:45;11.70;96.70
45115;DHT22;30877;43.706;10.780;2023-04-03T02:59:12;11.80;96.70
45115;DHT22;30877;43.706;10.780;2023-04-03T03:01:41;11.90;96.70
45115;DHT22;30877;43.706;10.780;2023-04-03T03:04:09;11.80;96.70
45115;DHT22;30877;43.706;10.780;2023-04-03T03:06:37;11.80;96.70
45115;DHT22;30877;43.706;10.780;2023-04-03T03:09:05;11.80;96.70
45115;DHT22;30877;43.706;10.780;2023-04-03T03:11:33;11.80;96.70
45115;DHT22;30877;43.706;10.780;2023-04-03T03:14:03;11.70;96.70
45115;DHT22;30877;43.706;10.780;2023-04-03T03:16:33;11.60;96.70
45115;DHT22;30877;43.706;10.780;2023-04-03T03:19:00;11.40;96.70
45115;DHT22;30877;43.706;10.780;2023-04-03T03:21:28;11.40;96.70
45115;DHT22;30877;43.706;10.780;2023-04-03T03:23:56;11.50;96.70
45115;DHT22;30877;43.706;10.780;2023-04-03T03:26:24;11.60;96.70
45115;DHT22;30877;43.706;10.780;2023-04-03T03:28:52;11.70;96.70
45115;DHT22;30877;43.706;10.780;2023-04-03T03:31:21;11.70;96.70
45115;DHT22;30877;43.706;10.780;2023-04-03T03:33:49;11.60;96.70
45115;DHT22;30877;43.706;10.780;2023-04-03T03:36:17;11.40;96.70
45115;DHT22;30877;43.706;10.780;2023-04-03T03:38:45;11.40;96.70
45115;DHT22;30877;43.706;10.780;2023-04-03T03:41:12;11.40;96.70
45115;DHT22;30877;43.706;10.780;2023-04-03T03:43:42;11.50;96.70
45115;DHT22;30877;43.706;10.780;2023-04-03T03:46:12;11.60;96.70
45115;DHT22;30877;43.706;10.780;2023-04-03T03:48:42;11.60;96.70
45115;DHT22;30877;43.706;10.780;2023-04-03T03:51:09;11.50;96.70
45115;DHT22;30877;43.706;10.780;2023-04-03T03:53:38;11.60;96.70
45115;DHT22;30877;43.706;10.780;2023-04-03T03:56:11;11.50;96.70
45115;DHT22;30877;43.706;10.780;2023-04-03T03:58:40;11.40;96.70
45115;DHT22;30877;43.706;10.780;2023-04-03T04:01:08;11.50;96.70
45115;DHT22;30877;43.706;10.780;2023-04-03T04:03:43;11.40;96.70
45115;DHT22;30877;43.706;10.780;2023-04-03T04:06:13;11.30;96.70
45115;DHT22;30877;43.706;10.780;2023-04-03T04:08:42;11.10;96.70
45115;DHT22;30877;43.706;10.780;2023-04-03T04:11:11;11.30;96.70
45115;DHT22;30877;43.706;10.780;2023-04-03T04:13:40;11.10;96.70
45115;DHT22;30877;43.706;10.780;2023-04-03T04:16:10;11.20;96.70
45115;DHT22;30877;43.706;10.780;2023-04-03T04:18:38;11.30;96.70
45115;DHT22;30877;43.706;10.780;2023-04-03T04:21:07;11.30;96.70
45115;DHT22;30877;43.706;10.780;2023-04-03T04:23:36;11.30;96.70
45115;DHT22;30877;43.706;10.780;2023-04-03T04:26:03;11.20;96.70
45115;DHT22;30877;43.706;10.780;2023-04-03T04:28:35;11.30;96.70
45115;DHT22;30877;43.706;10.780;2023-04-03T04:31:04;11.40;96.70
45115;DHT22;30877;43.706;10.780;2023-04-03T04:33:32;11.40;96.70
45115;DHT22;30877;43.706;10.780;2023-04-03T04:36:02;11.30;96.70
45115;DHT22;30877;43.706;10.780;2023-04-03T04:38:33;11.20;96.70
45115;DHT22;30877;43.706;10.780;2023-04-03T04:41:01;11.20;96.70
45115;DHT22;30877;43.706;10.780;2023-04-03T04:43:29;11.30;96.70
45115;DHT22;30877;43.706;10.780;2023-04-03T04:46:04;11.20;96.70
45115;DHT22;30877;43.706;10.780;2023-04-03T04:48:36;11.20;96.70
45115;DHT22;30877;43.706;10.780;2023-04-03T04:51:05;11.40;96.70
45115;DHT22;30877;43.706;10.780;2023-04-03T04:53:36;11.50;96.70
45115;DHT22;30877;43.706;10.780;2023-04-03T04:56:04;11.50;96.70
45115;DHT22;30877;43.706;10.780;2023-04-03T04:58:34;11.40;96.70
45115;DHT22;30877;43.706;10.780;2023-04-03T05:01:17;11.50;96.70
45115;DHT22;30877;43.706;10.780;2023-04-03T05:04:09;11.60;96.70
45115;DHT22;30877;43.706;10.780;2023-04-03T05:06:38;11.40;96.70
45115;DHT22;30877;43.706;10.780;2023-04-03T05:09:12;11.50;96.70
45115;DHT22;30877;43.706;10.780;2023-04-03T05:11:42;11.60;96.70
45115;DHT22;30877;43.706;10.780;2023-04-03T05:14:12;11.70;96.70
45115;DHT22;30877;43.706;10.780;2023-04-03T05:16:41;11.70;96.70
45115;DHT22;30877;43.706;10.780;2023-04-03T05:19:08;11.80;96.70
45115;DHT22;30877;43.706;10.780;2023-04-03T05:21:37;11.80;96.70
45115;DHT22;30877;43.706;10.780;2023-04-03T05:24:12;11.90;96.70
45115;DHT22;30877;43.706;10.780;2023-04-03T05:26:42;11.90;96.70
45115;DHT22;30877;43.706;10.780;2023-04-03T05:29:11;12.00;96.70
45115;DHT22;30877;43.706;10.780;2023-04-03T05:31:41;12.00;96.70
45115;DHT22;30877;43.706;10.780;2023-04-03T05:34:11;12.10;96.70
45115;DHT22;30877;43.706;10.780;2023-04-03T05:36:40;12.20;96.70
45115;DHT22;30877;43.706;10.780;2023-04-03T05:39:09;12.20;96.70
45115;DHT22;30877;43.706;10.780;2023-04-03T05:41:42;12.20;96.70
45115;DHT22;30877;43.706;10.780;2023-04-03T05:44:10;12.30;96.70
45115;DHT22;30877;43.706;10.780;2023-04-03T05:46:37;12.30;96.70
45115;DHT22;30877;43.706;10.780;2023-04-03T05:49:08;12.30;96.70
45115;DHT22;30877;43.706;10.780;2023-04-03T05:51:38;12.40;96.70
45115;DHT22;30877;43.706;10.780;2023-04-03T05:54:27;12.40;96.70
45115;DHT22;30877;43.706;10.780;2023-04-03T05:57:04;12.50;96.70
45115;DHT22;30877;43.706;10.780;2023-04-03T05:59:32;12.60;96.70
45115;DHT22;30877;43.706;10.780;2023-04-03T06:02:00;12.60;96.70
45115;DHT22;30877;43.706;10.780;2023-04-03T06:04:28;12.70;96.70
45115;DHT22;30877;43.706;10.780;2023-04-03T06:06:57;12.80;96.70
45115;DHT22;30877;43.706;10.780;2023-04-03T06:09:27;12.80;96.70
45115;DHT22;30877;43.706;10.780;2023-04-03T06:11:57;12.90;96.70
45115;DHT22;30877;43.706;10.780;2023-04-03T06:14:28;13.00;96.70
45115;DHT22;30877;43.706;10.780;2023-04-03T06:16:56;13.10;96.70
45115;DHT22;30877;43.706;10.780;2023-04-03T06:19:24;13.10;96.70
45115;DHT22;30877;43.706;10.780;2023-04-03T06:21:55;13.20;96.70
45115;DHT22;30877;43.706;10.780;2023-04-03T06:24:24;13.20;96.70
45115;DHT22;30877;43.706;10.780;2023-04-03T06:26:52;13.30;96.70
45115;DHT22;30877;43.706;10.780;2023-04-03T06:29:20;13.40;96.70
45115;DHT22;30877;43.706;10.780;2023-04-03T06:31:50;13.50;96.70
45115;DHT22;30877;43.706;10.780;2023-04-03T06:34:18;13.50;96.70
45115;DHT22;30877;43.706;10.780;2023-04-03T06:36:46;13.60;96.70
45115;DHT22;30877;43.706;10.780;2023-04-03T06:39:16;13.60;96.70
45115;DHT22;30877;43.706;10.780;2023-04-03T06:41:44;13.70;96.70
45115;DHT22;30877;43.706;10.780;2023-04-03T06:44:11;13.70;96.70
45115;DHT22;30877;43.706;10.780;2023-04-03T06:46:40;13.80;96.70
45115;DHT22;30877;43.706;10.780;2023-04-03T06:49:09;13.90;96.70
45115;DHT22;30877;43.706;10.780;2023-04-03T06:51:58;13.90;96.70
45115;DHT22;30877;43.706;10.780;2023-04-03T06:54:28;13.90;96.70
45115;DHT22;30877;43.706;10.780;2023-04-03T06:56:57;14.00;96.70
45115;DHT22;30877;43.706;10.780;2023-04-03T06:59:25;14.10;96.70
45115;DHT22;30877;43.706;10.780;2023-04-03T07:01:53;14.10;96.70
45115;DHT22;30877;43.706;10.780;2023-04-03T07:04:22;14.10;96.70
45115;DHT22;30877;43.706;10.780;2023-04-03T07:06:50;14.20;96.70
45115;DHT22;30877;43.706;10.780;2023-04-03T07:09:18;14.20;96.70
45115;DHT22;30877;43.706;10.780;2023-04-03T07:11:46;14.20;96.70
45115;DHT22;30877;43.706;10.780;2023-04-03T07:14:14;14.30;96.70
45115;DHT22;30877;43.706;10.780;2023-04-03T07:16:42;14.30;96.70
45115;DHT22;30877;43.706;10.780;2023-04-03T07:19:10;14.30;96.70
45115;DHT22;30877;43.706;10.780;2023-04-03T07:21:39;14.40;96.70
45115;DHT22;30877;43.706;10.780;2023-04-03T07:24:09;14.40;96.70
45115;DHT22;30877;43.706;10.780;2023-04-03T07:26:42;14.50;96.70
45115;DHT22;30877;43.706;10.780;2023-04-03T07:29:10;14.50;96.70
45115;DHT22;30877;43.706;10.780;2023-04-03T07:32:06;14.60;96.70
45115;DHT22;30877;43.706;10.780;2023-04-03T07:34:34;14.60;96.70
45115;DHT22;30877;43.706;10.780;2023-04-03T07:37:04;14.60;96.70
45115;DHT22;30877;43.706;10.780;2023-04-03T07:39:32;14.70;96.70
45115;DHT22;30877;43.706;10.780;2023-04-03T07:42:00;14.70;96.70
45115;DHT22;30877;43.706;10.780;2023-04-03T07:44:29;14.70;96.70
45115;DHT22;30877;43.706;10.780;2023-04-03T07:46:57;14.80;96.70
45115;DHT22;30877;43.706;10.780;2023-04-03T07:49:25;14.90;96.70
45115;DHT22;30877;43.706;10.780;2023-04-03T07:51:53;15.00;96.70
45115;DHT22;30877;43.706;10.780;2023-04-03T07:54:23;15.00;96.70
45115;DHT22;30877;43.706;10.780;2023-04-03T07:56:51;15.00;96.70
45115;DHT22;30877;43.706;10.780;2023-04-03T07:59:18;15.00;96.70
45115;DHT22;30877;43.706;10.780;2023-04-03T08:01:47;14.90;96.70
45115;DHT22;30877;43.706;10.780;2023-04-03T08:04:14;14.90;96.70
45115;DHT22;30877;43.706;10.780;2023-04-03T08:06:42;14.90;96.70
45115;DHT22;30877;43.706;10.780;2023-04-03T08:09:14;15.00;96.70
45115;DHT22;30877;43.706;10.780;2023-04-03T08:11:47;15.00;96.70
45115;DHT22;30877;43.706;10.780;2023-04-03T08:14:15;15.00;96.70
45115;DHT22;30877;43.706;10.780;2023-04-03T08:16:45;15.10;96.70
45115;DHT22;30877;43.706;10.780;2023-04-03T08:19:14;15.10;96.70
45115;DHT22;30877;43.706;10.780;2023-04-03T08:21:53;15.20;96.70
45115;DHT22;30877;43.706;10.780;2023-04-03T08:24:21;15.20;96.70
45115;DHT22;30877;43.706;10.780;2023-04-03T08:26:50;15.20;96.70
45115;DHT22;30877;43.706;10.780;2023-04-03T08:29:18;15.30;96.70
45115;DHT22;30877;43.706;10.780;2023-04-03T08:31:46;15.40;96.70
45115;DHT22;30877;43.706;10.780;2023-04-03T08:34:14;15.50;96.70
45115;DHT22;30877;43.706;10.780;2023-04-03T08:36:43;15.60;96.70
45115;DHT22;30877;43.706;10.780;2023-04-03T08:39:11;15.60;96.70
45115;DHT22;30877;43.706;10.780;2023-04-03T08:41:45;15.60;96.70
45115;DHT22;30877;43.706;10.780;2023-04-03T08:44:21;15.70;96.70
45115;DHT22;30877;43.706;10.780;2023-04-03T08:47:04;15.70;96.70
45115;DHT22;30877;43.706;10.780;2023-04-03T08:49:39;15.70;96.70
45115;DHT22;30877;43.706;10.780;2023-04-03T08:52:11;15.70;96.70
45115;DHT22;30877;43.706;10.780;2023-04-03T08:54:49;15.70;96.70
45115;DHT22;30877;43.706;10.780;2023-04-03T08:57:24;15.80;96.70
45115;DHT22;30877;43.706;10.780;2023-04-03T08:59:57;15.90;96.70
45115;DHT22;30877;43.706;10.780;2023-04-03T09:02:30;16.00;96.70
45115;DHT22;30877;43.706;10.780;2023-04-03T09:05:02;16.00;96.70
45115;DHT22;30877;43.706;10.780;2023-04-03T09:07:35;16.00;96.70
45115;DHT22;30877;43.706;10.780;2023-04-03T09:10:05;16.20;96.70
45115;DHT22;30877;43.706;10.780;2023-04-03T09:12:37;16.10;96.70
45115;DHT22;30877;43.706;10.780;2023-04-03T09:15:16;16.20;96.70
45115;DHT22;30877;43.706;10.780;2023-04-03T09:18:02;16.20;96.70
45115;DHT22;30877;43.706;10.780;2023-04-03T09:20:41;16.20;96.70
45115;DHT22;30877;43.706;10.780;2023-04-03T09:23:20;16.30;96.70
45115;DHT22;30877;43.706;10.780;2023-04-03T09:25:52;16.40;96.70
45115;DHT22;30877;43.706;10.780;2023-04-03T09:28:21;16.30;96.70
45115;DHT22;30877;43.706;10.780;2023-04-03T09:30:51;16.30;96.70
45115;DHT22;30877;43.706;10.780;2023-04-03T09:33:29;16.30;96.70
45115;DHT22;30877;43.706;10.780;2023-04-03T09:35:57;16.50;96.70
45115;DHT22;30877;43.706;10.780;2023-04-03T09:38:25;16.50;96.70
45115;DHT22;30877;43.706;10.780;2023-04-03T09:41:04;16.50;96.70
45115;DHT22;30877;43.706;10.780;2023-04-03T09:43:34;16.60;96.70
45115;DHT22;30877;43.706;10.780;2023-04-03T09:46:25;16.70;96.70
45115;DHT22;30877;43.706;10.780;2023-04-03T09:48:58;16.70;96.70
45115;DHT22;30877;43.706;10.780;2023-04-03T09:51:35;16.70;96.70
45115;DHT22;30877;43.706;10.780;2023-04-03T09:54:32;16.80;96.70
45115;DHT22;30877;43.706;10.780;2023-04-03T09:57:04;16.80;96.70
45115;DHT22;30877;43.706;10.780;2023-04-03T09:59:33;17.00;96.70
45115;DHT22;30877;43.706;10.780;2023-04-03T10:02:21;17.10;96.70
45115;DHT22;30877;43.706;10.780;2023-04-03T10:04:50;17.20;96.70
45115;DHT22;30877;43.706;10.780;2023-04-03T10:07:36;17.30;96.70
45115;DHT22;30877;43.706;10.780;2023-04-03T10:10:18;17.40;96.70
45115;DHT22;30877;43.706;10.780;2023-04-03T10:12:47;17.60;96.70
45115;DHT22;30877;43.706;10.780;2023-04-03T10:15:17;17.70;96.70
45115;DHT22;30877;43.706;10.780;2023-04-03T10:17:55;17.80;96.70
45115;DHT22;30877;43.706;10.780;2023-04-03T10:20:27;17.90;96.70
45115;DHT22;30877;43.706;10.780;2023-04-03T10:23:02;17.80;96.70
45115;DHT22;30877;43.706;10.780;2023-04-03T10:25:36;17.60;96.70
45115;DHT22;30877;43.706;10.780;2023-04-03T10:28:11;17.60;96.70
45115;DHT22;30877;43.706;10.780;2023-04-03T10:30:47;17.90;96.70
45115;DHT22;30877;43.706;10.780;2023-04-03T10:36:29;18.00;96.70
45115;DHT22;30877;43.706;10.780;2023-04-03T10:39:08;18.10;96.70
45115;DHT22;30877;43.706;10.780;2023-04-03T10:41:49;18.20;96.70
45115;DHT22;30877;43.706;10.780;2023-04-03T10:44:39;18.30;96.70
45115;DHT22;30877;43.706;10.780;2023-04-03T10:47:13;18.60;96.70
45115;DHT22;30877;43.706;10.780;2023-04-03T10:49:51;18.50;96.70
45115;DHT22;30877;43.706;10.780;2023-04-03T10:52:37;18.40;96.70
45115;DHT22;30877;43.706;10.780;2023-04-03T10:55:22;18.60;96.70
45115;DHT22;30877;43.706;10.780;2023-04-03T10:57:55;18.60;96.70
45115;DHT22;30877;43.706;10.780;2023-04-03T11:00:29;18.60;96.70
45115;DHT22;30877;43.706;10.780;2023-04-03T11:03:00;18.70;96.70
45115;DHT22;30877;43.706;10.780;2023-04-03T11:05:36;18.60;96.70
45115;DHT22;30877;43.706;10.780;2023-04-03T11:08:13;18.40;96.70
45115;DHT22;30877;43.706;10.780;2023-04-03T11:10:46;18.20;96.70
45115;DHT22;30877;43.706;10.780;2023-04-03T11:13:20;18.20;96.70
45115;DHT22;30877;43.706;10.780;2023-04-03T11:15:54;18.00;96.70
45115;DHT22;30877;43.706;10.780;2023-04-03T11:18:27;17.90;96.70
45115;DHT22;30877;43.706;10.780;2023-04-03T11:21:03;17.60;96.70
45115;DHT22;30877;43.706;10.780;2023-04-03T11:23:36;17.70;96.70
45115;DHT22;30877;43.706;10.780;2023-04-03T11:26:17;18.00;96.70
45115;DHT22;30877;43.706;10.780;2023-04-03T11:28:46;18.30;96.70
45115;DHT22;30877;43.706;10.780;2023-04-03T11:31:28;18.50;96.70
45115;DHT22;30877;43.706;10.780;2023-04-03T11:34:06;18.60;96.70
45115;DHT22;30877;43.706;10.780;2023-04-03T11:36:40;18.70;96.70
45115;DHT22;30877;43.706;10.780;2023-04-03T11:39:26;18.70;96.70
45115;DHT22;30877;43.706;10.780;2023-04-03T11:41:56;19.00;96.70
45115;DHT22;30877;43.706;10.780;2023-04-03T11:44:40;19.10;96.70
45115;DHT22;30877;43.706;10.780;2023-04-03T11:47:10;19.10;96.70
45115;DHT22;30877;43.706;10.780;2023-04-03T11:49:56;18.90;96.70
45115;DHT22;30877;43.706;10.780;2023-04-03T11:52:58;18.90;96.70
45115;DHT22;30877;43.706;10.780;2023-04-03T11:55:55;18.40;96.70
45115;DHT22;30877;43.706;10.780;2023-04-03T11:58:24;18.30;96.70
45115;DHT22;30877;43.706;10.780;2023-04-03T12:00:56;18.50;96.70
45115;DHT22;30877;43.706;10.780;2023-04-03T12:10:14;18.40;96.70
45115;DHT22;30877;43.706;10.780;2023-04-03T12:13:00;18.40;96.70
45115;DHT22;30877;43.706;10.780;2023-04-03T12:15:49;18.50;96.70
45115;DHT22;30877;43.706;10.780;2023-04-03T12:18:40;18.50;96.70
45115;DHT22;30877;43.706;10.780;2023-04-03T12:21:09;18.50;96.70
45115;DHT22;30877;43.706;10.780;2023-04-03T12:24:00;18.40;96.70
45115;DHT22;30877;43.706;10.780;2023-04-03T12:26:44;18.10;96.70
45115;DHT22;30877;43.706;10.780;2023-04-03T12:29:21;18.00;96.70
45115;DHT22;30877;43.706;10.780;2023-04-03T12:32:03;17.90;96.70
45115;DHT22;30877;43.706;10.780;2023-04-03T12:34:49;17.90;96.70
45115;DHT22;30877;43.706;10.780;2023-04-03T12:37:34;18.20;96.70
45115;DHT22;30877;43.706;10.780;2023-04-03T12:40:10;18.30;96.70
45115;DHT22;30877;43.706;10.780;2023-04-03T12:45:43;18.70;96.70
45115;DHT22;30877;43.706;10.780;2023-04-03T12:48:15;18.80;96.70
45115;DHT22;30877;43.706;10.780;2023-04-03T12:50:45;19.10;96.70
45115;DHT22;30877;43.706;10.780;2023-04-03T12:53:16;19.00;96.70
45115;DHT22;30877;43.706;10.780;2023-04-03T12:55:45;18.60;96.70
45115;DHT22;30877;43.706;10.780;2023-04-03T12:58:14;18.30;96.70
45115;DHT22;30877;43.706;10.780;2023-04-03T13:00:45;18.00;96.70
45115;DHT22;30877;43.706;10.780;2023-04-03T13:03:23;18.60;96.70
45115;DHT22;30877;43.706;10.780;2023-04-03T13:05:52;19.00;96.70
45115;DHT22;30877;43.706;10.780;2023-04-03T13:08:22;18.90;96.70
45115;DHT22;30877;43.706;10.780;2023-04-03T13:10:54;18.90;96.70
45115;DHT22;30877;43.706;10.780;2023-04-03T13:13:23;19.00;96.70
45115;DHT22;30877;43.706;10.780;2023-04-03T13:15:53;19.20;96.70
45115;DHT22;30877;43.706;10.780;2023-04-03T13:18:27;19.30;96.70
45115;DHT22;30877;43.706;10.780;2023-04-03T13:21:00;19.40;96.70
45115;DHT22;30877;43.706;10.780;2023-04-03T13:23:30;19.40;96.70
45115;DHT22;30877;43.706;10.780;2023-04-03T13:25:59;19.10;96.70
45115;DHT22;30877;43.706;10.780;2023-04-03T13:28:31;19.10;96.70
45115;DHT22;30877;43.706;10.780;2023-04-03T13:31:06;19.30;96.70
45115;DHT22;30877;43.706;10.780;2023-04-03T13:33:35;19.60;96.70
45115;DHT22;30877;43.706;10.780;2023-04-03T13:36:23;19.50;96.70
45115;DHT22;30877;43.706;10.780;2023-04-03T13:38:59;19.60;96.70
45115;DHT22;30877;43.706;10.780;2023-04-03T13:41:31;19.60;96.70
45115;DHT22;30877;43.706;10.780;2023-04-03T13:44:15;19.70;96.70
45115;DHT22;30877;43.706;10.780;2023-04-03T13:46:45;19.60;96.70
45115;DHT22;30877;43.706;10.780;2023-04-03T13:49:19;19.70;96.70
45115;DHT22;30877;43.706;10.780;2023-04-03T13:51:47;19.70;96.70
45115;DHT22;30877;43.706;10.780;2023-04-03T13:54:35;19.90;96.70
45115;DHT22;30877;43.706;10.780;2023-04-03T13:57:12;20.00;96.70
45115;DHT22;30877;43.706;10.780;2023-04-03T13:59:41;20.00;96.70
45115;DHT22;30877;43.706;10.780;2023-04-03T14:02:16;20.30;96.70
45115;DHT22;30877;43.706;10.780;2023-04-03T14:04:48;20.40;96.70
45115;DHT22;30877;43.706;10.780;2023-04-03T14:07:17;20.50;96.70
45115;DHT22;30877;43.706;10.780;2023-04-03T14:09:48;20.70;96.70
45115;DHT22;30877;43.706;10.780;2023-04-03T14:12:18;20.90;96.70
45115;DHT22;30877;43.706;10.780;2023-04-03T14:14:58;20.90;96.70
45115;DHT22;30877;43.706;10.780;2023-04-03T14:17:28;21.20;96.70
45115;DHT22;30877;43.706;10.780;2023-04-03T14:19:57;21.30;96.70
45115;DHT22;30877;43.706;10.780;2023-04-03T14:22:28;21.50;96.70
45115;DHT22;30877;43.706;10.780;2023-04-03T14:24:56;21.50;96.70
45115;DHT22;30877;43.706;10.780;2023-04-03T14:27:33;21.40;96.70
45115;DHT22;30877;43.706;10.780;2023-04-03T14:30:02;21.50;96.70
45115;DHT22;30877;43.706;10.780;2023-04-03T14:32:34;22.00;96.70
45115;DHT22;30877;43.706;10.780;2023-04-03T14:35:03;22.50;96.70
45115;DHT22;30877;43.706;10.780;2023-04-03T14:37:32;22.70;96.70
45115;DHT22;30877;43.706;10.780;2023-04-03T14:40:03;23.00;95.60
45115;DHT22;30877;43.706;10.780;2023-04-03T14:42:34;23.00;95.30
45115;DHT22;30877;43.706;10.780;2023-04-03T14:45:05;23.20;94.30
45115;DHT22;30877;43.706;10.780;2023-04-03T14:47:40;23.30;93.20
45115;DHT22;30877;43.706;10.780;2023-04-03T14:50:11;23.50;92.20
45115;DHT22;30877;43.706;10.780;2023-04-03T14:52:43;24.00;91.40
45115;DHT22;30877;43.706;10.780;2023-04-03T14:55:12;24.20;90.50
45115;DHT22;30877;43.706;10.780;2023-04-03T14:57:42;24.30;89.10
45115;DHT22;30877;43.706;10.780;2023-04-03T15:00:13;24.20;88.60
45115;DHT22;30877;43.706;10.780;2023-04-03T15:02:43;24.40;87.10
45115;DHT22;30877;43.706;10.780;2023-04-03T15:05:12;24.60;85.90
45115;DHT22;30877;43.706;10.780;2023-04-03T15:07:46;24.50;84.80
45115;DHT22;30877;43.706;10.780;2023-04-03T15:10:18;24.60;83.90
45115;DHT22;30877;43.706;10.780;2023-04-03T15:12:47;24.80;83.40
45115;DHT22;30877;43.706;10.780;2023-04-03T15:15:17;24.90;83.00
45115;DHT22;30877;43.706;10.780;2023-04-03T15:17:51;25.10;82.70
45115;DHT22;30877;43.706;10.780;2023-04-03T15:20:23;25.20;82.50
45115;DHT22;30877;43.706;10.780;2023-04-03T15:22:51;25.60;83.00
45115;DHT22;30877;43.706;10.780;2023-04-03T15:25:20;25.80;82.20
45115;DHT22;30877;43.706;10.780;2023-04-03T15:27:48;25.90;81.00
45115;DHT22;30877;43.706;10.780;2023-04-03T15:30:18;26.00;80.60
45115;DHT22;30877;43.706;10.780;2023-04-03T15:32:48;26.10;81.20
45115;DHT22;30877;43.706;10.780;2023-04-03T15:35:16;26.20;81.10
45115;DHT22;30877;43.706;10.780;2023-04-03T15:37:44;26.20;80.20
45115;DHT22;30877;43.706;10.780;2023-04-03T15:40:12;26.30;80.40
45115;DHT22;30877;43.706;10.780;2023-04-03T15:42:41;26.50;80.50
45115;DHT22;30877;43.706;10.780;2023-04-03T15:45:09;26.30;79.60
45115;DHT22;30877;43.706;10.780;2023-04-03T15:47:38;26.30;79.00
45115;DHT22;30877;43.706;10.780;2023-04-03T15:50:08;25.80;79.40
45115;DHT22;30877;43.706;10.780;2023-04-03T15:52:37;24.80;80.50
45115;DHT22;30877;43.706;10.780;2023-04-03T15:55:06;23.90;82.70
45115;DHT22;30877;43.706;10.780;2023-04-03T15:57:34;23.10;83.80